Time;durP1;ratioP1;P1;durP2;ratioP2;P2;SDS_P1;SDS_P2;PMS_P1;PMS_P2;Temp;Humidity;BMP_temperature;BMP_pressure;BME280_temperature;BME280_humidity;BME280_pressure;Samples;Min_cycle;Max_cycle;Signal;HPM_P1;HPM_P2
2023/12/10 00:02:10;;;;;;;27.02;4.93;;;7.70;77.40;;;;;;4998445;28;20196;-87
2023/12/10 00:04:54;;;;;;;32.65;5.07;;;7.70;77.40;;;;;;5012523;28;20049;-87
2023/12/10 00:07:38;;;;;;;24.85;5.63;;;7.70;76.70;;;;;;5013282;28;20120;-86
2023/12/10 00:10:22;;;;;;;22.83;5.18;;;7.70;76.50;;;;;;5012278;28;20049;-87
2023/12/10 00:13:06;;;;;;;33.00;6.95;;;7.70;76.90;;;;;;5011328;28;20459;-87
2023/12/10 00:15:51;;;;;;;27.88;5.03;;;7.70;76.70;;;;;;5012542;28;20052;-87
2023/12/10 00:18:35;;;;;;;30.73;5.82;;;7.70;76.20;;;;;;5012815;28;20104;-86
2023/12/10 00:21:19;;;;;;;24.15;4.40;;;7.80;76.10;;;;;;5012918;28;20060;-87
2023/12/10 00:24:04;;;;;;;24.77;4.53;;;7.80;75.90;;;;;;5012516;28;20032;-87
2023/12/10 00:26:48;;;;;;;29.60;4.57;;;7.80;75.50;;;;;;4997431;28;20393;-86
2023/12/10 00:29:32;;;;;;;30.80;5.55;;;7.80;75.00;;;;;;5011804;28;20090;-87
2023/12/10 00:32:17;;;;;;;26.98;6.65;;;7.80;75.20;;;;;;5012761;28;20051;-87
2023/12/10 00:35:01;;;;;;;26.80;6.35;;;7.80;75.10;;;;;;5012171;28;20056;-87
2023/12/10 00:37:45;;;;;;;29.23;3.85;;;7.80;75.10;;;;;;4986800;28;20049;-86
2023/12/10 00:40:29;;;;;;;40.33;5.85;;;7.80;75.20;;;;;;5012553;28;20168;-87
2023/12/10 00:43:14;;;;;;;22.83;4.10;;;7.80;75.40;;;;;;5011300;28;20536;-87
2023/12/10 00:45:58;;;;;;;24.15;3.83;;;7.80;75.30;;;;;;5012033;28;20501;-86
2023/12/10 00:48:43;;;;;;;26.05;3.58;;;7.80;75.10;;;;;;4992268;28;20049;-87
2023/12/10 00:51:28;;;;;;;27.02;4.90;;;7.80;74.90;;;;;;5012507;28;20470;-87
2023/12/10 00:54:12;;;;;;;24.02;5.55;;;7.90;74.50;;;;;;5010656;28;20128;-87
2023/12/10 00:56:56;;;;;;;16.75;3.03;;;7.90;74.20;;;;;;4998638;28;20036;-86
2023/12/10 00:59:40;;;;;;;17.38;3.30;;;7.80;74.10;;;;;;5011117;28;20065;-87
2023/12/10 01:02:25;;;;;;;16.63;3.35;;;7.80;74.60;;;;;;5010510;28;20064;-86
2023/12/10 01:05:10;;;;;;;25.13;4.93;;;7.80;74.30;;;;;;5010415;28;20100;-86
2023/12/10 01:07:53;;;;;;;15.93;3.90;;;7.80;74.70;;;;;;5011704;28;20542;-85
2023/12/10 01:10:38;;;;;;;19.65;3.83;;;7.70;75.20;;;;;;5011233;28;20049;-86
2023/12/10 01:13:24;;;;;;;20.25;3.80;;;7.60;75.80;;;;;;5010999;28;20069;-86
2023/12/10 01:16:10;;;;;;;15.80;3.08;;;7.60;76.40;;;;;;5010545;28;20052;-85
2023/12/10 01:18:55;;;;;;;25.50;4.25;;;;;;;;;;5011422;28;20087;-86
2023/12/10 01:21:40;;;;;;;25.95;4.10;;;;;;;;;;5011712;28;20045;-86
2023/12/10 01:24:24;;;;;;;19.80;3.55;;;;;;;;;;5011970;28;20099;-85
2023/12/10 01:27:09;;;;;;;29.92;4.13;;;;;;;;;;5000755;28;20117;-85
2023/12/10 01:29:53;;;;;;;25.42;4.70;;;;;;;;;;5007469;28;20088;-86
2023/12/10 01:32:38;;;;;;;19.60;3.63;;;;;;;;;;5010777;28;20410;-86
2023/12/10 01:35:22;;;;;;;19.88;3.28;;;;;;;;;;5003531;28;20057;-86
2023/12/10 01:38:07;;;;;;;20.60;3.65;;;;;;;;;;5007821;28;20045;-87
2023/12/10 01:40:51;;;;;;;23.83;4.82;;;;;;;;;;5011547;28;20049;-87
2023/12/10 01:43:36;;;;;;;21.67;3.88;;;;;;;;;;5005008;28;20045;-87
2023/12/10 01:46:21;;;;;;;29.30;4.03;;;;;;;;;;4984902;28;20545;-87
2023/12/10 01:49:07;;;;;;;27.80;4.07;;;;;;;;;;4990628;28;20398;-86
2023/12/10 01:51:52;;;;;;;21.83;4.05;;;;;;;;;;5009185;28;20107;-87
2023/12/10 01:54:37;;;;;;;25.45;3.65;;;;;;;;;;5011439;28;20536;-88
2023/12/10 01:57:21;;;;;;;28.35;5.32;;;;;;;;;;5009956;28;20045;-87
2023/12/10 02:00:07;;;;;;;33.42;4.45;;;;;;;;;;5008919;28;20045;-88
2023/12/10 02:02:52;;;;;;;33.65;5.32;;;;;;;;;;5000402;28;20076;-88
2023/12/10 02:05:36;;;;;;;23.23;4.13;;;;;;;;;;5010165;28;20053;-87
2023/12/10 02:08:22;;;;;;;28.85;5.20;;;;;;;;;;4990451;28;20713;-88
2023/12/10 02:11:06;;;;;;;25.40;4.53;;;;;;;;;;4998791;28;20092;-88
2023/12/10 02:13:51;;;;;;;30.73;4.00;;;;;;;;;;4992773;28;20042;-87
2023/12/10 02:16:35;;;;;;;26.88;3.30;;;;;;;;;;5015284;28;20053;-87
2023/12/10 02:19:20;;;;;;;24.50;3.92;;;;;;;;;;5014531;28;20044;-86
2023/12/10 02:22:05;;;;;;;30.40;3.83;;;;;;;;;;4994246;28;20085;-86
2023/12/10 02:24:51;;;;;;;31.88;4.47;;;;;;;;;;5003874;28;20038;-86
2023/12/10 02:27:36;;;;;;;27.02;3.60;;;;;;;;;;5003135;28;20088;-86
2023/12/10 02:30:20;;;;;;;31.33;6.35;;;;;;;;;;5014407;28;20036;-86
2023/12/10 02:33:05;;;;;;;24.05;4.35;;;;;;;;;;5003911;28;20093;-86
2023/12/10 02:35:49;;;;;;;24.48;3.83;;;;;;;;;;4999525;28;20049;-86
2023/12/10 02:38:34;;;;;;;28.00;3.78;;;;;;;;;;5003730;28;20041;-87
2023/12/10 02:41:19;;;;;;;25.25;4.78;;;;;;;;;;5014137;28;20073;-86
2023/12/10 02:44:03;;;;;;;29.42;4.55;;;;;;;;;;5014932;28;20061;-86
2023/12/10 02:46:48;;;;;;;18.85;3.92;;;;;;;;;;5014861;28;20133;-85
2023/12/10 02:49:33;;;;;;;23.15;3.78;;;;;;;;;;5014512;28;20087;-86
2023/12/10 02:52:19;;;;;;;20.45;4.15;;;;;;;;;;5013313;28;20513;-87
2023/12/10 02:55:04;;;;;;;29.10;3.80;;;;;;;;;;5013511;28;20045;-86
2023/12/10 02:57:49;;;;;;;27.10;3.92;;;;;;;;;;4999543;28;20474;-85
2023/12/10 03:00:34;;;;;;;26.83;4.90;;;;;;;;;;5014559;28;20067;-86
2023/12/10 03:03:20;;;;;;;21.00;4.15;;;;;;;;;;4998874;28;20108;-85
2023/12/10 03:06:06;;;;;;;22.75;3.40;;;;;;;;;;5014450;28;20093;-86
2023/12/10 03:08:51;;;;;;;25.85;5.05;;;;;;;;;;5005676;28;20041;-86
2023/12/10 03:11:35;;;;;;;19.65;3.47;;;;;;;;;;4996149;28;20061;-86
2023/12/10 03:14:20;;;;;;;22.67;4.30;;;;;;;;;;5001879;28;20057;-85
2023/12/10 03:17:04;;;;;;;20.63;3.40;;;;;;;;;;4999107;28;20084;-86
2023/12/10 03:19:49;;;;;;;26.23;4.22;;;;;;;;;;5013003;28;20493;-86
2023/12/10 03:22:34;;;;;;;21.30;3.75;;;;;;;;;;5014198;28;20049;-85
2023/12/10 03:25:19;;;;;;;20.25;4.15;;;;;;;;;;5012031;28;20128;-85
2023/12/10 03:28:03;;;;;;;28.48;4.55;;;;;;;;;;5013837;28;20532;-86
2023/12/10 03:30:48;;;;;;;22.00;3.80;;;;;;;;;;5013929;28;20489;-85
2023/12/10 03:33:34;;;;;;;29.27;4.70;;;;;;;;;;4998490;28;20874;-86
2023/12/10 03:36:19;;;;;;;31.70;3.45;;;;;;;;;;4999503;28;20084;-85
2023/12/10 03:39:04;;;;;;;20.48;3.75;;;;;;;;;;5013867;28;20053;-86
2023/12/10 03:41:50;;;;;;;15.63;2.78;;;;;;;;;;5012601;28;20767;-87
2023/12/10 03:44:34;;;;;;;21.38;3.47;;;;;;;;;;5013017;28;20504;-87
2023/12/10 03:47:19;;;;;;;15.18;2.97;;;;;;;;;;5013128;28;20041;-87
2023/12/10 03:50:04;;;;;;;15.85;2.72;;;;;;;;;;5013243;28;20041;-87
2023/12/10 03:52:49;;;;;;;17.13;2.95;;;;;;;;;;5013531;28;20091;-85
2023/12/10 03:55:33;;;;;;;21.42;3.45;;;;;;;;;;5011976;28;20754;-85
2023/12/10 03:58:18;;;;;;;23.70;2.60;;;;;;;;;;4995290;28;20493;-85
2023/12/10 04:01:02;;;;;;;11.32;2.08;;;;;;;;;;5013413;28;20045;-86
2023/12/10 04:03:47;;;;;;;12.18;2.17;;;;;;;;;;5013405;28;20115;-85
2023/12/10 04:06:31;;;;;;;13.07;3.17;;;;;;;;;;5012651;28;20045;-84
2023/12/10 04:09:16;;;;;;;10.68;2.30;;;;;;;;;;5012016;28;20041;-87
2023/12/10 04:12:01;;;;;;;12.25;2.22;;;;;;;;;;5012000;28;20083;-85
2023/12/10 04:14:47;;;;;;;9.32;2.20;;;;;;;;;;5013054;28;20401;-86
2023/12/10 04:17:31;;;;;;;8.50;1.88;;;;;;;;;;5012714;28;20406;-84
2023/12/10 04:20:16;;;;;;;15.82;2.63;;;;;;;;;;5011897;28;20118;-87
2023/12/10 04:23:00;;;;;;;9.32;2.00;;;;;;;;;;5013086;28;20057;-84
2023/12/10 04:25:45;;;;;;;9.07;2.40;;;;;;;;;;5012773;28;20095;-84
2023/12/10 04:28:30;;;;;;;12.23;3.60;;;;;;;;;;5012577;28;20045;-83
2023/12/10 04:31:15;;;;;;;7.90;2.10;;;;;;;;;;5001473;28;20052;-84
2023/12/10 04:34:01;;;;;;;10.43;2.88;;;;;;;;;;4997951;28;20104;-83
2023/12/10 04:36:46;;;;;;;15.48;2.67;;;;;;;;;;4999606;28;20037;-82
2023/12/10 04:39:30;;;;;;;10.93;2.42;;;;;;;;;;5012169;28;20087;-84
2023/12/10 04:42:15;;;;;;;13.93;2.78;;;;;;;;;;5011580;28;20052;-84
2023/12/10 04:44:59;;;;;;;14.68;3.10;;;;;;;;;;5012482;28;20091;-85
2023/12/10 04:47:44;;;;;;;11.02;2.60;;;;;;;;;;5012216;28;20044;-84
2023/12/10 04:50:29;;;;;;;11.57;2.20;;;;;;;;;;5011058;28;20125;-83
2023/12/10 04:53:13;;;;;;;14.57;2.17;;;;;;;;;;5012552;28;20554;-83
2023/12/10 04:55:59;;;;;;;9.77;1.75;;;;;;;;;;5011349;28;20133;-84
2023/12/10 04:58:44;;;;;;;13.68;2.10;;;;;;;;;;5010855;28;20438;-83
2023/12/10 05:01:28;;;;;;;10.15;1.90;;;;;;;;;;5011520;28;20068;-84
2023/12/10 05:04:13;;;;;;;7.97;1.92;;;;;;;;;;5012353;28;20121;-83
2023/12/10 05:06:57;;;;;;;7.43;1.70;;;;;;;;;;5011990;28;20172;-83
2023/12/10 05:09:42;;;;;;;7.43;1.85;;;;;;;;;;5010668;28;20100;-83
2023/12/10 05:12:26;;;;;;;7.35;1.65;;;;;;;;;;5011636;28;20037;-83
2023/12/10 05:15:11;;;;;;;10.27;1.95;;;;;;;;;;5011748;28;20104;-84
2023/12/10 05:17:56;;;;;;;13.40;2.22;;;;;;;;;;5012047;28;20048;-85
2023/12/10 05:20:40;;;;;;;8.43;1.90;;;;;;;;;;5010287;28;20109;-84
2023/12/10 05:23:25;;;;;;;6.53;1.90;;;;;;;;;;5011692;28;20413;-86
2023/12/10 05:26:09;;;;;;;12.88;1.90;;;;;;;;;;5011831;28;20045;-83
2023/12/10 05:28:54;;;;;;;13.88;1.85;;;;;;;;;;5011696;28;20099;-84
2023/12/10 05:31:39;;;;;;;6.38;1.45;;;;;;;;;;5010414;28;20091;-83
2023/12/10 05:34:23;;;;;;;11.88;2.00;;;;;;;;;;5009442;28;20479;-84
2023/12/10 05:37:08;;;;;;;12.10;2.90;;;;;;;;;;5002732;28;20085;-84
2023/12/10 05:39:52;;;;;;;9.32;2.17;;;;;;;;;;5010293;28;20121;-84
2023/12/10 05:42:37;;;;;;;9.48;2.33;;;;;;;;;;5011122;28;20215;-85
2023/12/10 05:45:21;;;;;;;10.02;3.45;;;;;;;;;;5011697;28;20169;-83
2023/12/10 05:48:06;;;;;;;8.65;2.72;;;;;;;;;;5011446;28;20041;-84
2023/12/10 05:50:51;;;;;;;6.97;1.95;;;;;;;;;;5010740;28;20040;-84
2023/12/10 05:53:35;;;;;;;12.15;1.85;;;;;;;;;;5011195;28;20080;-85
2023/12/10 05:56:20;;;;;;;13.43;2.33;;;;;;;;;;5011526;28;20045;-83
2023/12/10 05:59:04;;;;;;;13.07;2.85;;;;;;;;;;5011542;28;20045;-83
2023/12/10 06:01:49;;;;;;;10.88;2.47;;;;;;;;;;5010595;28;20540;-84
2023/12/10 06:04:34;;;;;;;11.20;1.58;;;;;;;;;;5011038;28;20520;-84
2023/12/10 06:07:18;;;;;;;9.82;2.78;;;;;;;;;;5011557;28;20049;-84
2023/12/10 06:10:04;;;;;;;13.85;3.05;;;;;;;;;;5011305;28;20076;-84
2023/12/10 06:12:50;;;;;;;8.57;1.80;;;;;;;;;;5010967;28;20147;-83
2023/12/10 06:15:35;;;;;;;10.82;2.15;;;;;;;;;;5010622;28;20052;-84
2023/12/10 06:18:19;;;;;;;8.52;1.67;;;;;;;;;;5010384;28;20049;-84
2023/12/10 06:21:04;;;;;;;8.95;1.75;;;;;;;;;;5011363;28;20040;-84
2023/12/10 06:23:49;;;;;;;6.43;1.38;;;;;;;;;;5010631;28;20088;-83
2023/12/10 06:26:34;;;;;;;5.35;1.48;;;;;;;;;;5010791;28;20153;-84
2023/12/10 06:29:18;;;;;;;6.80;1.38;;;;;;;;;;5011260;28;20151;-84
2023/12/10 06:32:03;;;;;;;8.85;1.60;;;;;;;;;;5011114;28;20049;-84
2023/12/10 06:34:48;;;;;;;6.13;1.27;;;;;;;;;;5005065;28;20061;-84
2023/12/10 06:37:33;;;;;;;6.25;1.60;;;;;;;;;;5005389;28;20076;-86
2023/12/10 06:40:17;;;;;;;11.00;2.00;;;;;;;;;;5010271;28;20085;-84
2023/12/10 06:43:02;;;;;;;10.70;1.45;;;;;;;;;;5010945;28;20541;-84
2023/12/10 06:45:47;;;;;;;9.63;1.38;;;;;;;;;;5010685;28;20129;-84
2023/12/10 06:48:33;;;;;;;7.53;1.10;;;;;;;;;;5011090;28;20092;-85
2023/12/10 06:51:18;;;;;;;6.68;1.40;;;;;;;;;;5010831;28;20057;-84
2023/12/10 06:54:03;;;;;;;4.60;0.88;;;;;;;;;;5011045;28;20581;-84
2023/12/10 06:56:47;;;;;;;3.47;0.95;;;;;;;;;;5009342;28;20045;-84
2023/12/10 06:59:32;;;;;;;7.05;1.20;;;;;;;;;;5011097;28;20466;-84
2023/12/10 07:02:16;;;;;;;6.47;1.15;;;;;;;;;;5012937;28;20108;-84
2023/12/10 07:05:01;;;;;;;7.63;1.17;;;;;;;;;;5013721;28;20044;-84
2023/12/10 07:07:45;;;;;;;7.53;1.40;;;;;;;;;;5013949;28;20060;-83
2023/12/10 07:10:30;;;;;;;6.72;1.35;;;;;;;;;;5014149;28;20049;-83
2023/12/10 07:13:14;;;;;;;8.75;1.70;;;;;;;;;;5014279;28;20037;-84
2023/12/10 07:15:59;;;;;;;5.18;1.05;;;;;;;;;;5013641;28;20049;-83
2023/12/10 07:18:44;;;;;;;6.80;1.60;;;;;;;;;;5012339;28;20064;-84
2023/12/10 07:21:28;;;;;;;7.90;1.90;;;;;;;;;;5014158;28;20040;-84
2023/12/10 07:24:13;;;;;;;9.75;1.85;;;;;;;;;;4993619;28;20053;-84
2023/12/10 07:26:58;;;;;;;11.18;2.17;;;;;;;;;;5007213;28;20057;-85
2023/12/10 07:29:42;;;;;;;9.57;1.70;;;;;;;;;;5013453;28;20041;-87
2023/12/10 07:32:27;;;;;;;16.23;2.35;;;;;;;;;;5013715;28;20095;-84
2023/12/10 07:35:12;;;;;;;15.27;2.88;;;;;;;;;;5004978;28;20134;-83
2023/12/10 07:37:56;;;;;;;15.80;2.72;;;;;;;;;;5009560;28;20040;-84
2023/12/10 07:40:41;;;;;;;22.58;3.28;;;;;;;;;;5013810;28;20506;-84
2023/12/10 07:43:25;;;;;;;18.65;3.40;;;;;;;;;;5012704;28;20041;-85
2023/12/10 07:46:10;;;;;;;22.33;4.05;;;;;;;;;;5013624;28;20128;-85
2023/12/10 07:48:54;;;;;;;14.35;2.97;;;;;;;;;;5012878;28;20111;-86
2023/12/10 07:51:39;;;;;;;21.70;4.07;;;;;;;;;;5013297;28;20076;-85
2023/12/10 07:54:24;;;;;;;18.00;4.25;;;;;;;;;;5013444;28;20049;-84
2023/12/10 07:57:09;;;;;;;8.93;2.15;;;;;;;;;;5013186;28;20092;-84
2023/12/10 07:59:53;;;;;;;21.83;2.60;;;7.50;76.80;;;;;;5012728;28;20121;-84
2023/12/10 08:02:37;;;;;;;15.77;2.47;;;7.40;84.10;;;;;;5013196;28;20482;-84
2023/12/10 08:05:22;;;;;;;19.15;3.35;;;;;;;;;;5013149;28;20084;-84
2023/12/10 08:08:07;;;;;;;19.33;4.07;;;;;;;;;;5012766;28;20450;-84
2023/12/10 08:10:52;;;;;;;20.27;3.15;;;;;;;;;;5012633;28;20040;-86
2023/12/10 08:13:36;;;;;;;22.02;3.10;;;;;;;;;;5011348;28;20092;-84
2023/12/10 08:16:21;;;;;;;23.90;3.60;;;;;;;;;;5013095;28;20128;-85
2023/12/10 08:19:06;;;;;;;13.80;3.67;;;;;;;;;;5012447;28;20095;-85
2023/12/10 08:21:51;;;;;;;18.83;3.85;;;;;;;;;;5011257;28;20552;-85
2023/12/10 08:24:36;;;;;;;12.98;3.05;;;;;;;;;;5013038;28;20048;-84
2023/12/10 08:27:20;;;;;;;16.70;2.78;;;;;;;;;;5012790;28;20036;-85
2023/12/10 08:30:05;;;;;;;23.23;3.83;;;;;;;;;;5012311;28;20137;-85
2023/12/10 08:32:50;;;;;;;18.42;2.78;;;;;;;;;;5012299;28;20076;-87
2023/12/10 08:35:35;;;;;;;25.85;4.72;;;;;;;;;;5000776;28;20050;-85
2023/12/10 08:38:19;;;;;;;26.58;4.07;;;;;;;;;;4999554;28;20084;-84
2023/12/10 08:41:05;;;;;;;26.17;2.90;;;;;;;;;;5011917;28;20516;-86
2023/12/10 08:43:50;;;;;;;27.00;4.88;;;;;;;;;;5012416;28;20037;-87
2023/12/10 08:46:35;;;;;;;20.73;2.30;;;;;;;;;;5012439;28;20034;-85
2023/12/10 08:49:19;;;;;;;20.63;3.40;;;;;;;;;;5012577;28;20402;-86
2023/12/10 08:52:04;;;;;;;27.08;4.50;;;;;;;;;;5011950;28;20068;-86
2023/12/10 08:54:50;;;;;;;22.80;4.28;;;;;;;;;;5011103;28;20068;-85
2023/12/10 08:57:34;;;;;;;16.48;3.08;;;;;;;;;;5012431;28;20041;-86
2023/12/10 09:00:19;;;;;;;26.60;3.92;;;;;;;;;;5012408;28;20036;-86
2023/12/10 09:03:03;;;;;;;17.40;2.42;;;;;;;;;;5011661;28;20064;-86
2023/12/10 09:05:48;;;;;;;17.05;2.83;;;;;;;;;;5012243;28;20080;-85
2023/12/10 09:08:33;;;;;;;15.25;3.55;;;;;;;;;;5012029;28;20145;-85
2023/12/10 09:11:17;;;;;;;12.40;2.80;;;;;;;;;;5010574;28;20044;-86
2023/12/10 09:14:02;;;;;;;13.45;2.80;;;;;;;;;;5010511;28;20037;-86
2023/12/10 09:16:47;;;;;;;14.40;3.47;;;;;;;;;;5011931;28;20633;-86
2023/12/10 09:19:32;;;;;;;9.73;1.98;;;;;;;;;;5011971;28;20402;-87
2023/12/10 09:22:17;;;;;;;18.60;2.83;;;;;;;;;;5011306;28;20107;-86
2023/12/10 09:25:02;;;;;;;16.45;2.28;;;;;;;;;;5010591;28;20065;-87
2023/12/10 09:27:47;;;;;;;18.92;3.13;;;;;;;;;;5010766;28;20036;-85
2023/12/10 09:30:31;;;;;;;16.08;3.00;;;;;;;;;;5010664;28;20124;-86
2023/12/10 09:33:16;;;;;;;17.88;2.40;;;;;;;;;;5010342;28;20547;-86
2023/12/10 09:36:00;;;;;;;20.73;3.58;;;;;;;;;;4996089;28;20104;-87
2023/12/10 09:38:45;;;;;;;20.08;2.88;;;;;;;;;;5011763;28;20072;-86
2023/12/10 09:41:30;;;;;;;19.00;2.92;;;;;;;;;;5011666;28;20394;-87
2023/12/10 09:44:15;;;;;;;21.15;3.85;;;;;;;;;;5011183;28;20049;-87
2023/12/10 09:47:00;;;;;;;18.55;2.28;;;;;;;;;;5011429;28;20496;-87
2023/12/10 09:49:45;;;;;;;12.50;2.40;;;;;;;;;;5011479;28;20113;-87
2023/12/10 09:52:30;;;;;;;21.00;2.47;;;;;;;;;;5011676;28;20100;-87
2023/12/10 09:55:14;;;;;;;12.48;2.22;;;;;;;;;;5010843;28;20060;-87
2023/12/10 09:57:59;;;;;;;17.35;3.00;;;;;;;;;;5011394;28;20080;-87
2023/12/10 10:00:44;;;;;;;21.00;3.35;;;;;;;;;;5011520;28;20165;-87
2023/12/10 10:03:28;;;;;;;11.18;3.17;;;;;;;;;;5010019;28;20056;-88
2023/12/10 10:06:13;;;;;;;20.25;3.15;;;;;;;;;;5011041;28;20048;-87
2023/12/10 10:08:57;;;;;;;21.10;2.95;;;;;;;;;;5011503;28;20041;-86
2023/12/10 10:11:47;;;;;;;23.42;4.40;;;;;;;;;;5010091;28;20478;-87
2023/12/10 10:14:32;;;;;;;19.88;2.95;;;;;;;;;;5010368;28;20049;-87
2023/12/10 10:17:16;;;;;;;34.40;3.80;;;;;;;;;;5009627;28;20068;-87
2023/12/10 10:20:04;;;;;;;24.55;5.45;;;;;;;;;;5011261;28;20497;-87
2023/12/10 10:22:49;;;;;;;26.80;3.40;;;;;;;;;;5010274;28;20510;-89
2023/12/10 10:25:33;;;;;;;28.85;5.10;;;;;;;;;;5011171;28;20053;-88
2023/12/10 10:28:17;;;;;;;29.85;5.13;;;;;;;;;;4990104;28;20049;-88
2023/12/10 10:31:02;;;;;;;28.40;4.28;;;;;;;;;;4997895;28;20045;-88
2023/12/10 10:33:47;;;;;;;25.88;5.22;;;;;;;;;;5010034;28;20088;-88
2023/12/10 10:36:32;;;;;;;25.75;4.43;;;;;;;;;;5000101;28;20092;-88
2023/12/10 10:39:17;;;;;;;27.10;3.95;;;;;;;;;;5014258;28;20044;-88
2023/12/10 10:42:06;;;;;;;28.65;4.38;;;;;;;;;;5014901;28;20045;-88
2023/12/10 10:44:51;;;;;;;30.08;5.00;;;;;;;;;;5013630;28;20044;-88
2023/12/10 10:47:36;;;;;;;27.55;5.38;;;;;;;;;;5014909;28;20041;-88
2023/12/10 10:50:21;;;;;;;22.35;4.20;;;;;;;;;;5013475;28;20045;-90
2023/12/10 10:53:06;;;;;;;23.48;3.65;;;;;;;;;;5013541;28;20554;-88
2023/12/10 10:55:51;;;;;;;32.20;5.13;;;;;;;;;;5014624;28;20172;-89
2023/12/10 10:58:39;;;;;;;28.35;5.22;;;;;;;;;;5014725;28;20052;-90
2023/12/10 11:01:38;;;;;;;37.63;6.88;;;;;;;;;;5012782;28;20044;-89
2023/12/10 11:04:22;;;;;;;36.65;4.97;;;;;;;;;;5014281;28;20037;-89
2023/12/10 11:07:07;;;;;;;33.60;4.28;;;;;;;;;;5014501;28;20414;-91
2023/12/10 11:10:02;;;;;;;34.00;5.38;;;;;;;;;;5013231;28;20044;-91
2023/12/10 11:12:48;;;;;;;30.88;5.80;;;;;;;;;;5013705;28;20044;-90
2023/12/10 11:15:33;;;;;;;29.98;5.57;;;;;;;;;;5013645;28;20052;-89
2023/12/10 11:18:17;;;;;;;35.28;5.22;;;;;;;;;;5013759;28;20044;-90
2023/12/10 11:21:02;;;;;;;30.27;4.60;;;;;;;;;;5013300;28;20045;-90
2023/12/10 11:23:46;;;;;;;32.33;4.93;;;;;;;;;;5014013;28;20036;-89
2023/12/10 11:26:31;;;;;;;27.40;5.60;;;;;;;;;;5013803;28;20534;-89
2023/12/10 11:29:16;;;;;;;21.95;4.95;;;;;;;;;;5012624;28;20096;-90
2023/12/10 11:32:00;;;;;;;31.77;6.03;;;;;;;;;;5014108;28;20040;-91
2023/12/10 11:34:45;;;;;;;26.40;4.00;;;;;;;;;;5008159;28;20511;-91
2023/12/10 11:37:29;;;;;;;37.03;4.85;;;;;;;;;;5006519;28;20084;-90
2023/12/10 11:40:14;;;;;;;33.65;5.45;;;;;;;;;;5013816;28;20572;-87
2023/12/10 11:43:02;;;;;;;30.65;5.85;;;;;;;;;;5012832;28;20040;-90
2023/12/10 11:45:47;;;;;;;34.10;6.40;;;;;;;;;;5013060;28;20112;-91
2023/12/10 11:48:31;;;;;;;32.78;5.43;;;;;;;;;;5012632;28;20037;-90
2023/12/10 11:51:17;;;;;;;35.70;5.03;;;;;;;;;;5013876;28;20096;-87
2023/12/10 11:54:02;;;;;;;30.85;4.30;;;;;;;;;;5013528;28;20037;-89
2023/12/10 11:56:47;;;;;;;20.90;4.03;;;;;;;;;;5013699;28;20504;-92
2023/12/10 11:59:31;;;;;;;34.88;6.53;;;;;;;;;;5012420;28;20398;-91
2023/12/10 12:02:16;;;;;;;35.20;6.22;;;;;;;;;;5013662;28;20068;-90
2023/12/10 12:05:01;;;;;;;32.88;5.05;;;;;;;;;;5012940;28;20048;-91
2023/12/10 12:07:48;;;;;;;23.55;6.15;;;;;;;;;;4993696;28;20065;-91
2023/12/10 12:10:37;;;;;;;31.45;4.53;;;;;;;;;;5012133;28;20033;-91
2023/12/10 12:13:21;;;;;;;30.13;5.20;;;;;;;;;;5012846;28;20107;-91
2023/12/10 12:16:06;;;;;;;19.80;4.30;;;;;;;;;;5019309;28;20052;-89
2023/12/10 12:18:51;;;;;;;37.03;5.88;;;;;;;;;;5024827;28;20118;-90
2023/12/10 12:21:35;;;;;;;32.38;5.35;;;;;;;;;;5024198;28;20037;-89
2023/12/10 12:24:20;;;;;;;28.20;4.97;;;;;;;;;;5025412;28;20052;-86
2023/12/10 12:27:05;;;;;;;30.40;6.38;;;;;;;;;;5015778;28;20129;-91
2023/12/10 12:29:50;;;;;;;28.10;4.82;;;;;;;;;;5013706;28;20045;-90
2023/12/10 12:32:35;;;;;;;30.58;4.75;;;;;;;;;;4998209;28;20157;-90
2023/12/10 12:35:19;;;;;;;32.25;4.72;;;;;;;;;;5002563;28;20548;-91
2023/12/10 12:38:04;;;;;;;24.35;4.38;;;;;;;;;;5010400;28;20052;-91
2023/12/10 12:40:49;;;;;;;26.48;4.47;;;;;;;;;;5013371;28;20091;-91
2023/12/10 12:43:33;;;;;;;23.20;5.15;;;;;;;;;;5011676;28;20048;-92
2023/12/10 12:46:18;;;;;;;23.90;4.55;;;;;;;;;;5012823;28;20096;-91
2023/12/10 12:49:02;;;;;;;24.40;3.83;;;;;;;;;;5012905;28;20444;-92
2023/12/10 12:51:47;;;;;;;20.13;4.55;;;;;;;;;;5011107;28;20057;-91
2023/12/10 12:54:32;;;;;;;19.83;3.55;;;;;;;;;;5011348;28;20406;-90
2023/12/10 12:57:17;;;;;;;22.48;3.67;;;;;;;;;;5000657;28;20041;-90
2023/12/10 13:00:01;;;;;;;17.10;3.03;;;;;;;;;;5011677;28;20095;-91
2023/12/10 13:02:46;;;;;;;16.15;3.58;;;;;;;;;;5012174;28;20117;-89
2023/12/10 13:05:30;;;;;;;21.88;3.70;;;;;;;;;;5011975;28;20040;-90
2023/12/10 13:08:15;;;;;;;17.02;2.85;;;;;;;;;;5011254;28;20041;-92
2023/12/10 13:11:00;;;;;;;17.05;3.25;;;;;;;;;;5012261;28;20108;-89
2023/12/10 13:13:45;;;;;;;20.67;3.38;;;;;;;;;;4995343;28;20045;-89
2023/12/10 13:16:30;;;;;;;20.75;3.05;;;;;;;;;;4991363;28;20092;-90
2023/12/10 13:19:14;;;;;;;24.52;4.20;;;;;;;;;;4998781;28;20502;-88
2023/12/10 13:21:59;;;;;;;13.73;3.45;;;;;;;;;;5010969;28;20160;-88
2023/12/10 13:24:43;;;;;;;19.92;3.35;;;;;;;;;;4991106;28;20049;-90
2023/12/10 13:27:28;;;;;;;19.83;4.13;;;;;;;;;;5010845;28;20048;-85
2023/12/10 13:30:13;;;;;;;16.55;3.88;;;;;;;;;;5012029;28;20053;-89
2023/12/10 13:32:58;;;;;;;13.93;2.97;;;;;;;;;;5011851;28;20122;-88
2023/12/10 13:35:42;;;;;;;28.38;4.25;;;;;;;;;;4997521;28;20120;-88
2023/12/10 13:38:27;;;;;;;15.88;3.08;;;;;;;;;;4999584;28;20402;-89
2023/12/10 13:41:12;;;;;;;20.30;3.58;;;;;;;;;;5011745;28;20164;-88
2023/12/10 13:43:57;;;;;;;16.52;3.30;;;;;;;;;;5011704;28;20103;-87
2023/12/10 13:46:42;;;;;;;20.70;4.13;;;;;;;;;;5011000;28;20484;-87
2023/12/10 13:49:27;;;;;;;25.58;3.67;;;;;;;;;;5011538;28;20108;-86
2023/12/10 13:52:12;;;;;;;18.48;2.92;;;;;;;;;;5011720;28;20084;-88
2023/12/10 13:54:56;;;;;;;24.58;3.78;;;;;;;;;;5009950;28;20122;-87
2023/12/10 13:57:41;;;;;;;24.77;3.92;;;;;;;;;;5011169;28;20168;-87
2023/12/10 14:00:26;;;;;;;26.42;5.53;;;;;;;;;;5011571;28;20425;-87
2023/12/10 14:03:10;;;;;;;20.63;4.20;;;;;;;;;;5011171;28;20784;-87
2023/12/10 14:05:56;;;;;;;24.00;4.13;;;;;;;;;;5010004;28;20100;-87
2023/12/10 14:08:41;;;;;;;26.95;4.18;;;;;;;;;;5010912;28;20141;-87
2023/12/10 14:11:25;;;;;;;16.98;4.30;;;;;;;;;;5014161;28;20084;-87
2023/12/10 14:14:10;;;;;;;19.85;4.35;;;;;;;;;;5015392;28;20052;-86
2023/12/10 14:16:54;;;;;;;23.55;3.63;;;;;;;;;;5014710;28;20095;-87
2023/12/10 14:19:39;;;;;;;25.27;3.70;;;;;;;;;;5013835;28;20041;-87
2023/12/10 14:22:23;;;;;;;29.40;3.70;;;;;;;;;;5014039;28;20072;-87
2023/12/10 14:25:08;;;;;;;23.35;4.25;;;;;;;;;;5015179;28;20052;-86
2023/12/10 14:27:53;;;;;;;24.17;3.92;;;;;;;;;;5013632;28;20092;-86
2023/12/10 14:30:38;;;;;;;15.73;3.40;;;;;;;;;;5013580;28;20509;-84
2023/12/10 14:33:23;;;;;;;18.05;4.72;;;;;;;;;;5015051;28;20180;-87
2023/12/10 14:36:07;;;;;;;24.55;3.13;;;;;;;;;;4996666;28;20097;-87
2023/12/10 14:38:54;;;;;;;16.33;2.70;;;;;;;;;;5014306;28;20053;-86
2023/12/10 14:41:38;;;;;;;23.02;4.30;;;;;;;;;;5013392;28;20041;-84
2023/12/10 14:44:23;;;;;;;17.45;3.10;;;;;;;;;;5013717;28;20131;-86
2023/12/10 14:47:08;;;;;;;17.92;3.58;;;;;;;;;;5013660;28;20501;-86
2023/12/10 14:49:53;;;;;;;22.10;4.28;;;;;;;;;;5013157;28;20141;-86
2023/12/10 14:52:37;;;;;;;19.23;4.38;;;;;;;;;;5013694;28;20099;-86
2023/12/10 14:55:22;;;;;;;23.13;3.45;;;;;;;;;;5014527;28;20133;-86
2023/12/10 14:58:06;;;;;;;26.65;4.47;;;;;;;;;;5014399;28;20126;-86
2023/12/10 15:00:51;;;;;;;21.70;3.50;;;;;;;;;;5013079;28;20118;-86
2023/12/10 15:03:36;;;;;;;21.13;3.97;;;;;;;;;;5013228;28;20505;-86
2023/12/10 15:06:20;;;;;;;23.50;3.97;;;;;;;;;;5014442;28;20053;-86
2023/12/10 15:09:05;;;;;;;21.15;3.95;;;;;;;;;;5012933;28;20032;-86
2023/12/10 15:11:50;;;;;;;22.45;3.95;;;;;;;;;;5012663;28;20046;-86
2023/12/10 15:14:34;;;;;;;28.88;4.07;;;;;;;;;;5013207;28;20145;-86
2023/12/10 15:17:19;;;;;;;24.70;3.70;;;;;;;;;;5014166;28;20576;-85
2023/12/10 15:20:04;;;;;;;16.85;3.30;;;;;;;;;;5012701;28;20107;-86
2023/12/10 15:22:48;;;;;;;18.65;4.50;;;;;;;;;;5012521;28;20762;-85
2023/12/10 15:25:33;;;;;;;18.40;3.92;;;;;;;;;;5014016;28;20401;-86
2023/12/10 15:28:18;;;;;;;19.95;3.80;;;;;;;;;;5013021;28;20091;-86
2023/12/10 15:31:03;;;;;;;22.13;4.75;;;;;;;;;;5013485;28;20045;-86
2023/12/10 15:33:48;;;;;;;19.42;4.57;;;;;;;;;;5013691;28;20071;-85
2023/12/10 15:36:32;;;;;;;22.15;5.15;;;;;;;;;;5000035;28;20127;-85
2023/12/10 15:39:17;;;;;;;25.17;4.03;;;;;;;;;;5013500;28;20041;-85
2023/12/10 15:42:02;;;;;;;19.40;3.78;;;;;;;;;;5012295;28;20420;-86
2023/12/10 15:44:46;;;;;;;24.70;5.00;;;;;;;;;;5013330;28;20040;-84
2023/12/10 15:47:31;;;;;;;23.42;6.28;;;;;;;;;;5013591;28;20099;-86
2023/12/10 15:50:16;;;;;;;20.70;6.38;;;;;;;;;;5013680;28;20049;-85
2023/12/10 15:53:00;;;;;;;26.00;4.88;;;;;;;;;;5012904;28;20048;-85
2023/12/10 15:55:46;;;;;;;19.63;6.30;;;;;;;;;;5012367;28;20107;-85
2023/12/10 15:58:30;;;;;;;22.00;5.30;;;;;;;;;;5013387;28;20072;-85
2023/12/10 16:01:15;;;;;;;20.42;4.43;;;;;;;;;;5012369;28;20036;-85
2023/12/10 16:04:02;;;;;;;22.67;4.93;;;;;;;;;;5011885;28;20127;-85